Time;durP1;ratioP1;P1;durP2;ratioP2;P2;SDS_P1;SDS_P2;PMS_P1;PMS_P2;Temp;Humidity;BMP_temperature;BMP_pressure;BME280_temperature;BME280_humidity;BME280_pressure;Samples;Min_cycle;Max_cycle;Signal;HPM_P1;HPM_P2
2022/05/17 00:01:54;;;;;;;7.82;2.10;;;22.50;71.10;;;;;;5014083;28;20033;-61
2022/05/17 00:04:20;;;;;;;5.43;1.80;;;22.50;71.10;;;;;;5014102;28;20032;-61
2022/05/17 00:06:47;;;;;;;5.55;1.65;;;22.50;71.00;;;;;;5013570;28;20033;-65
2022/05/17 00:09:13;;;;;;;8.27;1.90;;;22.50;71.00;;;;;;5014124;28;20026;-64
2022/05/17 00:11:38;;;;;;;6.38;1.70;;;22.50;71.00;;;;;;5013980;28;20593;-65
2022/05/17 00:14:04;;;;;;;6.53;2.05;;;22.50;71.10;;;;;;5013883;28;20017;-66
2022/05/17 00:16:30;;;;;;;6.30;2.40;;;22.40;71.20;;;;;;5013817;28;20032;-66
2022/05/17 00:18:56;;;;;;;8.65;2.17;;;22.40;71.10;;;;;;5013900;28;20435;-64
2022/05/17 00:21:21;;;;;;;6.30;1.88;;;22.40;71.30;;;;;;5013634;28;20502;-62
2022/05/17 00:23:47;;;;;;;6.75;2.00;;;22.40;71.50;;;;;;5013859;28;20021;-62
2022/05/17 00:26:13;;;;;;;5.35;1.90;;;22.30;71.80;;;;;;5013513;28;20108;-65
2022/05/17 00:28:39;;;;;;;9.23;1.98;;;22.30;71.60;;;;;;5013264;28;20029;-63
2022/05/17 00:31:06;;;;;;;9.43;2.42;;;22.30;71.90;;;;;;5013694;28;20030;-62
2022/05/17 00:33:33;;;;;;;7.65;2.00;;;22.30;71.70;;;;;;5013628;28;20026;-62
2022/05/17 00:35:59;;;;;;;7.57;1.83;;;22.30;72.00;;;;;;5013124;28;20142;-61
2022/05/17 00:38:24;;;;;;;4.95;2.03;;;22.30;72.30;;;;;;5013623;28;20476;-61
2022/05/17 00:40:50;;;;;;;7.22;2.25;;;22.20;72.10;;;;;;5013612;28;20052;-65
2022/05/17 00:44:42;;;;;;;8.13;2.40;;;22.30;72.10;;;;;;5013455;28;20384;-64
2022/05/17 00:46:16;;;;;;;11.88;2.67;;;22.30;72.10;;;;;;5013278;28;20364;-61
2022/05/17 00:48:41;;;;;;;11.27;2.50;;;22.20;72.20;;;;;;5013438;28;20026;-65
2022/05/17 00:51:07;;;;;;;10.43;2.72;;;22.20;72.50;;;;;;5012900;28;20042;-61
2022/05/17 00:53:34;;;;;;;5.80;1.90;;;22.20;72.60;;;;;;5013495;28;20084;-64
2022/05/17 00:56:07;;;;;;;9.43;1.90;;;22.20;72.50;;;;;;5013331;28;20064;-61
2022/05/17 00:59:00;;;;;;;11.60;3.13;;;22.20;72.50;;;;;;5013339;28;20061;-61
2022/05/17 01:01:29;;;;;;;8.60;2.08;;;22.20;72.50;;;;;;5013773;28;20026;-61
2022/05/17 01:04:00;;;;;;;7.05;2.20;;;22.20;72.80;;;;;;5012938;28;20080;-61
2022/05/17 01:06:32;;;;;;;7.57;1.90;;;22.10;72.70;;;;;;5013366;28;20483;-66
2022/05/17 01:08:57;;;;;;;8.55;2.50;;;22.10;72.70;;;;;;5013272;28;20049;-66
2022/05/17 01:11:23;;;;;;;8.13;1.92;;;22.10;72.90;;;;;;5013198;28;20499;-67
2022/05/17 01:16:33;;;;;;;7.45;1.77;;;22.10;72.70;;;;;;5013330;28;20037;-66
2022/05/17 01:18:58;;;;;;;5.82;1.88;;;22.10;72.60;;;;;;5012879;28;20025;-66
2022/05/17 01:21:24;;;;;;;8.00;1.90;;;22.10;72.70;;;;;;5013122;28;20530;-66
2022/05/17 01:23:49;;;;;;;7.63;2.10;;;22.10;72.80;;;;;;5013126;28;20030;-66
2022/05/17 01:26:23;;;;;;;4.90;1.58;;;22.00;73.10;;;;;;5012941;28;20034;-67
2022/05/17 01:28:48;;;;;;;4.15;1.70;;;22.00;73.10;;;;;;5012850;28;20026;-61
2022/05/17 01:31:15;;;;;;;7.20;2.30;;;22.00;73.30;;;;;;5013015;28;20097;-67
2022/05/17 01:33:41;;;;;;;6.50;1.80;;;22.00;73.60;;;;;;5012758;28;20037;-65
2022/05/17 01:36:09;;;;;;;7.05;2.05;;;21.90;73.40;;;;;;5012887;28;20475;-61
2022/05/17 01:38:36;;;;;;;6.90;1.70;;;21.90;73.80;;;;;;5012809;28;20069;-61
2022/05/17 01:41:02;;;;;;;7.18;2.00;;;21.90;74.00;;;;;;5015718;28;20097;-62
2022/05/17 01:43:27;;;;;;;4.05;1.45;;;21.90;73.90;;;;;;5016553;28;20030;-61
2022/05/17 01:45:53;;;;;;;5.13;1.60;;;21.90;74.10;;;;;;5016765;28;20041;-63
2022/05/17 01:48:19;;;;;;;8.25;1.98;;;21.90;74.50;;;;;;5016356;28;20387;-61
2022/05/17 01:50:44;;;;;;;4.30;1.45;;;21.80;74.40;;;;;;5016517;28;20399;-66
2022/05/17 01:53:10;;;;;;;4.82;1.67;;;21.80;74.50;;;;;;5016455;28;20379;-66
2022/05/17 01:55:36;;;;;;;6.65;1.92;;;21.80;74.50;;;;;;5016507;28;20053;-65
2022/05/17 01:58:02;;;;;;;5.68;1.83;;;21.80;75.00;;;;;;5016651;28;20029;-62
2022/05/17 02:00:28;;;;;;;8.48;1.90;;;21.70;75.00;;;;;;5016525;28;20026;-61
2022/05/17 02:02:54;;;;;;;4.75;1.75;;;21.70;75.00;;;;;;5016102;28;20028;-61
2022/05/17 02:05:22;;;;;;;4.32;1.40;;;21.70;75.00;;;;;;5016146;28;20108;-61
2022/05/17 02:07:50;;;;;;;7.13;2.22;;;21.70;75.10;;;;;;5016409;28;20021;-62
2022/05/17 02:10:18;;;;;;;9.85;1.70;;;21.70;76.10;;;;;;5016351;28;20026;-61
2022/05/17 02:12:44;;;;;;;5.60;2.13;;;21.60;75.60;;;;;;5016292;28;20026;-61
2022/05/17 02:15:11;;;;;;;8.73;2.10;;;21.60;75.90;;;;;;5016074;28;20022;-62
2022/05/17 02:17:37;;;;;;;6.05;1.65;;;21.60;75.80;;;;;;5009267;28;20029;-63
2022/05/17 02:20:05;;;;;;;6.32;1.90;;;21.60;75.90;;;;;;5015697;28;20025;-61
2022/05/17 02:22:30;;;;;;;7.25;1.70;;;21.60;76.00;;;;;;5013994;28;20057;-61
2022/05/17 02:24:56;;;;;;;6.60;2.05;;;21.60;75.90;;;;;;5015621;28;20064;-63
2022/05/17 02:27:22;;;;;;;5.32;1.88;;;21.60;75.80;;;;;;5015603;28;20476;-62
2022/05/17 02:29:47;;;;;;;4.90;1.83;;;21.60;76.00;;;;;;5015909;28;20037;-62
2022/05/17 02:32:14;;;;;;;5.85;2.28;;;21.60;76.00;;;;;;5015470;28;20502;-61
2022/05/17 02:34:40;;;;;;;6.20;2.03;;;21.60;76.00;;;;;;5015718;28;20026;-61
2022/05/17 02:37:05;;;;;;;7.20;2.33;;;21.60;76.00;;;;;;5015683;28;20103;-61
2022/05/17 02:39:31;;;;;;;7.57;2.30;;;21.60;75.90;;;;;;5015495;28;20029;-61
2022/05/17 02:41:57;;;;;;;5.30;2.25;;;21.60;75.80;;;;;;5015710;28;20033;-61
2022/05/17 02:44:23;;;;;;;7.47;2.38;;;21.50;76.30;;;;;;5015716;28;20020;-61
2022/05/17 02:46:48;;;;;;;6.10;2.10;;;21.50;76.90;;;;;;5015337;28;20108;-61
2022/05/17 02:49:14;;;;;;;7.07;2.85;;;21.50;77.20;;;;;;5015385;28;20038;-60
2022/05/17 02:51:40;;;;;;;4.53;2.50;;;21.50;77.70;;;;;;5014100;28;20034;-60
2022/05/17 02:54:07;;;;;;;4.90;1.80;;;21.50;78.70;;;;;;5015561;28;20049;-62
2022/05/17 02:56:33;;;;;;;8.02;2.13;;;21.50;79.50;;;;;;5015250;28;20041;-61
2022/05/17 02:58:59;;;;;;;8.38;2.30;;;21.50;80.30;;;;;;5015389;28;20030;-60
2022/05/17 03:01:25;;;;;;;7.45;2.40;;;21.50;81.20;;;;;;5014873;28;20041;-61
2022/05/17 03:03:51;;;;;;;6.72;2.15;;;21.50;81.40;;;;;;5015316;28;20022;-63
2022/05/17 03:06:16;;;;;;;6.57;2.17;;;21.50;81.70;;;;;;5015071;28;20030;-61
2022/05/17 03:08:42;;;;;;;5.63;2.08;;;21.50;81.30;;;;;;5015408;28;20033;-62
2022/05/17 03:11:08;;;;;;;4.63;2.00;;;21.40;81.30;;;;;;5014881;28;20034;-61
2022/05/17 03:13:34;;;;;;;6.38;2.05;;;21.40;82.00;;;;;;5015163;28;20033;-63
2022/05/17 03:16:00;;;;;;;6.53;1.95;;;21.40;81.80;;;;;;5014727;28;20104;-65
2022/05/17 03:18:26;;;;;;;8.80;1.73;;;21.50;83.10;;;;;;5012899;28;20133;-66
2022/05/17 03:20:51;;;;;;;7.88;2.05;;;21.40;82.50;;;;;;5013037;28;20030;-61
2022/05/17 03:23:17;;;;;;;6.05;2.08;;;21.40;83.10;;;;;;5013313;28;20030;-62
2022/05/17 03:25:43;;;;;;;7.75;2.40;;;21.40;83.30;;;;;;5003984;28;20030;-63
2022/05/17 03:28:11;;;;;;;6.97;1.85;;;21.40;83.10;;;;;;5014812;28;20117;-62
2022/05/17 03:30:37;;;;;;;5.93;2.10;;;21.40;83.10;;;;;;5009516;28;20027;-63
2022/05/17 03:33:02;;;;;;;5.15;2.20;;;21.30;83.40;;;;;;5008171;28;20030;-60
2022/05/17 03:35:28;;;;;;;5.75;2.08;;;21.40;82.20;;;;;;5013949;28;20109;-59
2022/05/17 03:37:53;;;;;;;7.18;2.13;;;21.60;81.10;;;;;;5014688;28;20491;-59
2022/05/17 03:40:19;;;;;;;6.72;1.95;;;21.60;80.30;;;;;;5013023;28;20502;-61
2022/05/17 03:42:45;;;;;;;5.72;1.63;;;21.60;80.20;;;;;;5011533;28;20522;-63
2022/05/17 03:45:11;;;;;;;4.47;1.90;;;21.60;80.30;;;;;;5010607;28;20033;-61
2022/05/17 03:47:36;;;;;;;10.13;2.38;;;21.60;80.50;;;;;;5013760;28;20022;-61
2022/05/17 03:50:03;;;;;;;7.30;2.28;;;21.60;80.20;;;;;;5013499;28;20467;-60
2022/05/17 03:52:31;;;;;;;9.95;2.60;;;21.60;80.50;;;;;;5014158;28;20538;-61
2022/05/17 03:54:58;;;;;;;5.32;2.05;;;21.60;80.30;;;;;;5014213;28;20594;-60
2022/05/17 03:57:25;;;;;;;6.60;2.00;;;21.60;80.60;;;;;;5013275;28;20117;-60
2022/05/17 03:59:51;;;;;;;8.10;2.85;;;21.50;79.50;;;;;;4996957;28;20031;-66
2022/05/17 04:02:16;;;;;;;11.02;2.72;;;21.50;79.00;;;;;;4994214;28;20039;-61
2022/05/17 04:04:42;;;;;;;8.63;3.03;;;21.50;79.10;;;;;;4994371;28;20416;-60
2022/05/17 04:07:08;;;;;;;9.23;2.97;;;21.50;78.90;;;;;;4994363;28;20546;-61
2022/05/17 04:09:33;;;;;;;8.93;2.83;;;21.50;78.60;;;;;;4994627;28;20558;-60
2022/05/17 04:11:59;;;;;;;7.03;2.58;;;21.50;78.70;;;;;;4994214;28;20054;-61
2022/05/17 04:14:24;;;;;;;9.35;3.00;;;21.40;79.00;;;;;;5012055;28;20354;-60
2022/05/17 04:16:50;;;;;;;7.97;2.78;;;21.40;78.90;;;;;;5013735;28;20164;-64
2022/05/17 04:19:16;;;;;;;9.52;3.25;;;21.50;78.90;;;;;;5013028;28;20022;-63
2022/05/17 04:21:43;;;;;;;10.52;3.10;;;21.50;78.80;;;;;;5002657;28;20022;-62
2022/05/17 04:24:10;;;;;;;8.13;3.10;;;21.40;79.40;;;;;;4994094;28;20097;-68
2022/05/17 04:26:35;;;;;;;9.75;2.83;;;21.40;79.10;;;;;;5016006;28;20053;-61
2022/05/17 04:29:01;;;;;;;9.57;3.25;;;21.40;78.90;;;;;;5021116;28;20487;-60
2022/05/17 04:31:27;;;;;;;9.07;3.00;;;21.30;78.90;;;;;;5013305;28;20095;-60
2022/05/17 04:33:52;;;;;;;5.40;2.90;;;21.40;79.00;;;;;;5013048;28;20109;-63
2022/05/17 04:36:18;;;;;;;8.88;2.92;;;21.40;79.00;;;;;;5013459;28;20030;-65
2022/05/17 04:38:44;;;;;;;7.60;3.80;;;21.40;78.80;;;;;;5013341;28;20028;-60
2022/05/17 04:41:09;;;;;;;10.10;3.47;;;21.40;78.90;;;;;;5013682;28;20419;-66
2022/05/17 04:43:35;;;;;;;10.57;3.58;;;21.40;79.00;;;;;;5013210;28;20444;-63
2022/05/17 04:46:00;;;;;;;13.27;3.78;;;21.30;79.00;;;;;;5013368;28;20030;-66
2022/05/17 04:48:26;;;;;;;8.57;3.53;;;21.30;79.20;;;;;;5013546;28;20072;-66
2022/05/17 04:50:52;;;;;;;12.15;3.95;;;21.30;79.20;;;;;;5013373;28;20030;-60
2022/05/17 04:53:18;;;;;;;8.95;3.53;;;21.30;79.20;;;;;;5013452;28;20107;-59
2022/05/17 04:55:44;;;;;;;12.73;4.03;;;21.30;79.20;;;;;;5013377;28;20026;-62
2022/05/17 04:58:10;;;;;;;9.23;3.95;;;21.30;79.20;;;;;;5013292;28;20030;-65
2022/05/17 05:00:36;;;;;;;8.75;4.22;;;21.30;79.20;;;;;;5011062;28;20484;-66
2022/05/17 05:03:02;;;;;;;7.30;3.63;;;21.20;79.10;;;;;;5011751;28;20025;-65
2022/05/17 05:05:27;;;;;;;5.97;3.20;;;21.20;79.10;;;;;;5012966;28;20492;-61
2022/05/17 05:07:53;;;;;;;9.45;3.35;;;21.20;79.10;;;;;;5011547;28;20025;-65
2022/05/17 05:10:19;;;;;;;8.45;3.55;;;21.30;79.20;;;;;;5012961;28;20026;-65
2022/05/17 05:12:45;;;;;;;8.52;3.20;;;21.20;79.10;;;;;;5011460;28;20080;-62
2022/05/17 05:15:12;;;;;;;8.60;3.60;;;21.20;79.00;;;;;;5013875;28;20064;-65
2022/05/17 05:17:38;;;;;;;9.73;3.83;;;21.20;79.00;;;;;;5017310;28;20076;-66
2022/05/17 05:20:06;;;;;;;11.32;3.58;;;21.20;79.00;;;;;;5016715;28;20025;-63
2022/05/17 05:22:33;;;;;;;10.32;3.38;;;21.20;78.80;;;;;;5021760;28;20025;-65
2022/05/17 05:24:59;;;;;;;10.57;3.30;;;21.30;78.70;;;;;;5036302;28;20033;-64
2022/05/17 05:27:25;;;;;;;10.73;3.30;;;21.30;78.70;;;;;;5018993;28;20121;-63
2022/05/17 05:29:50;;;;;;;8.45;3.10;;;21.20;78.60;;;;;;5017196;28;20446;-62
2022/05/17 05:32:16;;;;;;;9.40;2.85;;;21.20;78.70;;;;;;5032074;28;20049;-63
2022/05/17 05:34:41;;;;;;;9.35;3.40;;;21.20;79.10;;;;;;5020941;28;20101;-60
2022/05/17 05:37:07;;;;;;;9.20;3.15;;;21.20;79.30;;;;;;5017451;28;20038;-66
2022/05/17 05:39:33;;;;;;;6.88;3.10;;;21.10;79.20;;;;;;5030515;28;20022;-63
2022/05/17 05:41:59;;;;;;;9.15;3.25;;;21.10;79.50;;;;;;5021198;28;20376;-64
2022/05/17 05:44:25;;;;;;;8.60;3.17;;;21.10;79.80;;;;;;5027910;28;20079;-65
2022/05/17 05:46:51;;;;;;;12.23;3.92;;;21.10;80.10;;;;;;5033714;28;20025;-61
2022/05/17 05:49:16;;;;;;;10.75;4.00;;;21.00;80.40;;;;;;5033743;28;20507;-66
2022/05/17 05:51:42;;;;;;;14.60;3.85;;;21.00;81.30;;;;;;5023979;28;20171;-66
2022/05/17 05:54:08;;;;;;;11.65;4.22;;;21.00;81.70;;;;;;5018269;28;20490;-64
2022/05/17 05:56:34;;;;;;;11.98;3.20;;;21.00;82.50;;;;;;5036091;28;20033;-67
2022/05/17 05:58:59;;;;;;;8.45;3.20;;;21.10;82.60;;;;;;5032858;28;20026;-67
2022/05/17 06:01:26;;;;;;;12.35;3.97;;;21.10;82.50;;;;;;5015904;28;20036;-65
2022/05/17 06:03:52;;;;;;;9.30;3.05;;;21.10;82.80;;;;;;5010903;28;20491;-64
2022/05/17 06:06:18;;;;;;;11.38;3.00;;;21.20;82.60;;;;;;5014846;28;20034;-66
2022/05/17 06:08:43;;;;;;;12.48;3.05;;;21.20;82.00;;;;;;5014518;28;20026;-66
2022/05/17 06:11:10;;;;;;;8.35;3.20;;;21.20;81.60;;;;;;5015835;28;20040;-66
2022/05/17 06:13:35;;;;;;;11.90;3.92;;;21.20;81.90;;;;;;5016361;28;20464;-67
2022/05/17 06:16:01;;;;;;;13.30;3.75;;;21.20;82.40;;;;;;5015860;28;20072;-64
2022/05/17 06:18:30;;;;;;;11.18;3.53;;;21.30;82.40;;;;;;5015477;28;20383;-61
2022/05/17 06:20:56;;;;;;;11.38;3.65;;;21.20;82.40;;;;;;5015745;28;20479;-63
2022/05/17 06:23:23;;;;;;;9.40;3.35;;;21.20;82.10;;;;;;5013525;28;20394;-64
2022/05/17 06:25:49;;;;;;;10.98;4.28;;;21.20;82.30;;;;;;5015207;28;20494;-63
2022/05/17 06:28:15;;;;;;;12.07;3.83;;;21.20;82.50;;;;;;5014458;28;20471;-63
2022/05/17 06:30:43;;;;;;;12.82;3.83;;;21.20;82.10;;;;;;5013865;28;20171;-61
2022/05/17 06:33:11;;;;;;;9.68;3.65;;;21.20;82.30;;;;;;5015860;28;20540;-65
2022/05/17 06:35:41;;;;;;;9.85;3.95;;;21.20;82.20;;;;;;5012282;28;20032;-66
2022/05/17 06:38:07;;;;;;;9.88;3.75;;;21.20;82.10;;;;;;5013292;28;20076;-64
2022/05/17 06:40:33;;;;;;;11.77;3.45;;;21.20;82.10;;;;;;5015560;28;20057;-65
2022/05/17 06:42:59;;;;;;;11.20;3.95;;;21.10;82.30;;;;;;5004607;28;20036;-65
2022/05/17 06:45:25;;;;;;;12.05;3.42;;;21.20;82.10;;;;;;5014016;28;20097;-64
2022/05/17 06:47:51;;;;;;;12.52;2.95;;;21.20;81.70;;;;;;5013254;28;20097;-66
2022/05/17 06:50:16;;;;;;;11.75;3.67;;;21.20;81.50;;;;;;5013261;28;20591;-62
2022/05/17 06:52:44;;;;;;;17.58;3.30;;;21.10;81.60;;;;;;5014098;28;20029;-65
2022/05/17 06:55:10;;;;;;;9.55;3.03;;;21.10;81.80;;;;;;5007988;28;20041;-65
2022/05/17 06:57:37;;;;;;;10.75;4.13;;;21.10;82.20;;;;;;5014325;28;20041;-64
2022/05/17 07:00:05;;;;;;;15.65;3.63;;;21.10;82.10;;;;;;5006631;28;20061;-59
2022/05/17 07:02:32;;;;;;;10.60;4.03;;;21.10;82.10;;;;;;5011045;28;20014;-64
2022/05/17 07:04:59;;;;;;;15.77;3.90;;;21.10;82.10;;;;;;5012955;28;20049;-60
2022/05/17 07:07:26;;;;;;;9.88;2.85;;;21.10;81.90;;;;;;5014925;28;20391;-66
2022/05/17 07:15:20;;;;;;;11.05;3.45;;;21.00;82.20;;;;;;5001084;28;20036;-64
2022/05/17 07:17:47;;;;;;;13.35;3.65;;;21.10;82.10;;;;;;5012331;28;20029;-65
2022/05/17 07:20:14;;;;;;;13.50;3.13;;;21.10;82.10;;;;;;5014372;28;20352;-64
2022/05/17 07:22:39;;;;;;;10.90;3.28;;;21.10;82.30;;;;;;5011159;28;20029;-64
2022/05/17 07:25:05;;;;;;;8.60;2.78;;;21.00;82.20;;;;;;5012352;28;20364;-64
2022/05/17 07:27:31;;;;;;;10.65;3.00;;;21.10;82.80;;;;;;5014554;28;20069;-64
2022/05/17 07:29:57;;;;;;;7.35;2.95;;;21.10;81.60;;;;;;5014238;28;20066;-66
2022/05/17 07:32:22;;;;;;;8.23;2.75;;;21.20;81.80;;;;;;5014181;28;20373;-65
2022/05/17 07:34:48;;;;;;;8.18;2.97;;;21.20;82.00;;;;;;5011067;28;20442;-66
2022/05/17 07:37:14;;;;;;;5.18;2.75;;;21.20;81.80;;;;;;5010868;28;20056;-66
2022/05/17 07:39:39;;;;;;;8.05;2.55;;;21.20;81.90;;;;;;5013555;28;20026;-66
2022/05/17 07:42:06;;;;;;;9.75;3.10;;;21.20;81.80;;;;;;4999571;28;20502;-66
2022/05/17 07:44:33;;;;;;;8.02;2.67;;;21.20;81.90;;;;;;4998195;28;20057;-66
2022/05/17 07:46:58;;;;;;;9.85;2.88;;;21.30;82.00;;;;;;5013621;28;20059;-66
2022/05/17 07:49:24;;;;;;;6.50;2.47;;;21.30;82.00;;;;;;5014486;28;20026;-66
2022/05/17 07:51:49;;;;;;;9.45;2.75;;;21.30;81.40;;;;;;5007559;28;20121;-66
2022/05/17 07:54:15;;;;;;;7.07;2.33;;;21.40;81.50;;;;;;4994751;28;20015;-67
2022/05/17 07:56:41;;;;;;;9.18;2.63;;;21.40;81.60;;;;;;5006892;28;20464;-66
2022/05/17 07:59:06;;;;;;;7.43;2.50;;;21.40;81.50;;;;;;5012684;28;20490;-66
2022/05/17 08:01:32;;;;;;;7.30;2.28;;;21.50;81.40;;;;;;5014143;28;20527;-66
2022/05/17 08:03:57;;;;;;;9.07;2.97;;;21.50;81.40;;;;;;5000485;28;20488;-65
2022/05/17 08:06:23;;;;;;;7.68;2.97;;;21.50;81.80;;;;;;5007939;28;20128;-66
2022/05/17 08:08:48;;;;;;;10.38;2.50;;;21.50;81.80;;;;;;4996484;28;20026;-64
2022/05/17 08:11:14;;;;;;;8.63;2.60;;;21.60;81.70;;;;;;4994199;28;20125;-64
2022/05/17 08:13:40;;;;;;;6.97;2.58;;;21.60;81.50;;;;;;4995320;28;20457;-64
2022/05/17 08:16:05;;;;;;;9.88;3.25;;;21.60;81.80;;;;;;5002167;28;20049;-64
2022/05/17 08:18:31;;;;;;;6.05;2.60;;;21.60;81.70;;;;;;5007670;28;20079;-64
2022/05/17 08:20:57;;;;;;;7.57;2.70;;;21.60;81.40;;;;;;5024685;28;20371;-62
2022/05/17 08:23:22;;;;;;;7.63;2.60;;;21.70;81.60;;;;;;5014000;28;20018;-63
2022/05/17 08:28:32;;;;;;;6.07;2.72;;;21.70;81.70;;;;;;4994148;28;20121;-63
2022/05/17 08:30:58;;;;;;;8.80;2.47;;;21.70;82.00;;;;;;5002539;28;20472;-59
2022/05/17 08:33:25;;;;;;;7.95;3.50;;;21.70;82.60;;;;;;5008433;28;20525;-63
2022/05/17 08:35:55;;;;;;;8.60;3.35;;;21.80;82.50;;;;;;5007392;28;20018;-62
2022/05/17 08:38:27;;;;;;;8.32;3.25;;;21.90;81.90;;;;;;5012843;28;20029;-64
2022/05/17 08:41:26;;;;;;;7.38;2.78;;;21.90;81.50;;;;;;5010821;28;20491;-64
2022/05/17 08:44:02;;;;;;;8.45;2.95;;;21.90;81.00;;;;;;5008079;28;20030;-63
2022/05/17 08:46:33;;;;;;;9.27;2.45;;;22.00;81.40;;;;;;5014374;28;20101;-64
2022/05/17 08:49:18;;;;;;;7.35;2.80;;;21.90;81.00;;;;;;5012334;28;20043;-63
2022/05/17 08:52:09;;;;;;;4.00;1.80;;;22.00;81.20;;;;;;5003066;28;20038;-63
2022/05/17 08:54:51;;;;;;;8.45;2.92;;;22.00;79.70;;;;;;5013765;28;20080;-64
2022/05/17 08:57:35;;;;;;;11.32;4.22;;;22.00;80.10;;;;;;5014839;28;20029;-63
2022/05/17 09:00:11;;;;;;;5.95;3.15;;;22.10;80.30;;;;;;5013616;28;20057;-63
2022/05/17 09:02:56;;;;;;;4.00;2.40;;;22.10;80.20;;;;;;5011678;28;20357;-63
2022/05/17 09:05:46;;;;;;;6.80;2.50;;;22.10;79.70;;;;;;5014351;28;20028;-62
2022/05/17 09:08:41;;;;;;;6.53;2.55;;;22.10;80.20;;;;;;5003947;28;20503;-64
2022/05/17 09:11:19;;;;;;;3.80;1.80;;;22.10;79.40;;;;;;5000662;28;20042;-62
2022/05/17 09:14:06;;;;;;;5.53;2.60;;;22.10;79.60;;;;;;4997717;28;20042;-63
2022/05/17 09:16:35;;;;;;;10.05;3.90;;;22.10;79.60;;;;;;5008380;28;20105;-63
2022/05/17 09:19:00;;;;;;;6.32;2.95;;;22.10;81.00;;;;;;5011479;28;20080;-63
2022/05/17 09:21:37;;;;;;;8.30;3.53;;;22.20;80.30;;;;;;5008678;28;20022;-63
2022/05/17 09:24:12;;;;;;;4.80;3.20;;;22.20;81.30;;;;;;5006219;28;20384;-63
2022/05/17 09:26:39;;;;;;;5.13;2.22;;;22.20;80.60;;;;;;4999196;28;20038;-64
2022/05/17 09:29:27;;;;;;;6.85;3.08;;;22.20;80.10;;;;;;5012802;28;20483;-63
2022/05/17 09:31:59;;;;;;;7.22;2.50;;;22.30;80.40;;;;;;5012562;28;20085;-64
2022/05/17 09:34:33;;;;;;;7.45;3.00;;;22.30;80.10;;;;;;5006563;28;20460;-66
2022/05/17 09:37:06;;;;;;;4.10;2.10;;;22.30;80.20;;;;;;5011161;28;20022;-65
2022/05/17 09:39:32;;;;;;;6.47;3.55;;;22.30;80.30;;;;;;5009575;28;20041;-66
2022/05/17 09:42:03;;;;;;;6.65;2.83;;;22.30;80.30;;;;;;5008245;28;20468;-66
2022/05/17 09:44:30;;;;;;;8.05;3.47;;;22.40;80.00;;;;;;5014724;28;20053;-64
2022/05/17 09:46:59;;;;;;;6.25;2.45;;;22.40;80.10;;;;;;5012843;28;20056;-59
2022/05/17 09:52:35;;;;;;;8.05;2.60;;;22.40;79.40;;;;;;5005317;28;20048;-63
2022/05/17 09:55:22;;;;;;;7.53;2.50;;;22.40;79.80;;;;;;5006983;28;20095;-60
2022/05/17 09:57:58;;;;;;;3.60;2.30;;;22.50;79.30;;;;;;5031163;28;20502;-64
2022/05/17 10:00:46;;;;;;;4.28;2.42;;;22.50;79.40;;;;;;4998443;28;20121;-61
2022/05/17 10:03:14;;;;;;;8.07;2.50;;;22.50;79.10;;;;;;5011674;28;20038;-64
2022/05/17 10:05:40;;;;;;;6.72;2.53;;;22.50;79.80;;;;;;5015654;28;20403;-63
2022/05/17 10:08:11;;;;;;;8.52;2.97;;;22.50;79.70;;;;;;5017349;28;20018;-64
2022/05/17 10:10:43;;;;;;;6.03;2.50;;;22.50;80.20;;;;;;5017510;28;20191;-64
2022/05/17 10:13:21;;;;;;;7.20;3.40;;;22.50;79.80;;;;;;5002729;28;20033;-63
2022/05/17 10:15:50;;;;;;;7.28;4.63;;;22.50;80.60;;;;;;5014322;28;20127;-64
2022/05/17 10:18:35;;;;;;;5.00;2.28;;;22.60;81.10;;;;;;5000010;28;20464;-63
2022/05/17 10:21:21;;;;;;;7.88;2.17;;;22.60;79.60;;;;;;4996890;28;20506;-64
2022/05/17 10:24:08;;;;;;;7.78;3.20;;;22.70;79.20;;;;;;5012042;28;20065;-64
2022/05/17 10:26:43;;;;;;;5.03;2.80;;;22.70;79.30;;;;;;5009686;28;20108;-62
2022/05/17 10:29:23;;;;;;;9.55;5.07;;;22.70;79.80;;;;;;5005696;28;20058;-65
2022/05/17 10:32:08;;;;;;;5.00;2.85;;;22.70;80.90;;;;;;5012556;28;20084;-64
2022/05/17 10:34:44;;;;;;;8.30;4.07;;;22.70;79.90;;;;;;5008334;28;20030;-64
2022/05/17 10:37:15;;;;;;;6.93;3.15;;;22.70;80.80;;;;;;5016981;28;20018;-63
2022/05/17 10:39:53;;;;;;;6.97;2.47;;;22.70;80.10;;;;;;5029348;28;20018;-64
2022/05/17 10:42:20;;;;;;;8.13;3.60;;;22.80;79.60;;;;;;5035365;28;20025;-65
2022/05/17 10:44:52;;;;;;;5.50;3.17;;;22.70;80.70;;;;;;5015420;28;20403;-64
2022/05/17 10:47:34;;;;;;;5.25;2.60;;;22.80;80.10;;;;;;5014154;28;20125;-64
2022/05/17 10:50:14;;;;;;;;;;;22.80;80.40;;;;;;5015922;28;20058;-64
2022/05/17 10:53:04;;;;;;;3.85;2.28;;;22.80;79.60;;;;;;5015630;28;19959;-64
2022/05/17 10:55:51;;;;;;;10.80;5.35;;;22.80;79.80;;;;;;5015354;28;20036;-64
2022/05/17 10:58:33;;;;;;;9.82;5.85;;;22.80;82.30;;;;;;5019589;28;20033;-64
2022/05/17 11:01:09;;;;;;;11.27;5.13;;;23.00;81.80;;;;;;5003768;28;20025;-64
2022/05/17 11:03:50;;;;;;;9.57;3.30;;;23.00;81.80;;;;;;5013651;28;20022;-64
2022/05/17 11:06:15;;;;;;;8.68;3.38;;;23.00;80.20;;;;;;5005824;28;20165;-64
2022/05/17 11:09:00;;;;;;;6.65;3.30;;;23.00;80.10;;;;;;5000968;28;20097;-63
2022/05/17 11:11:37;;;;;;;5.75;2.50;;;23.00;80.10;;;;;;5012681;28;20061;-62
2022/05/17 11:14:14;;;;;;;7.72;3.20;;;23.00;80.00;;;;;;5012673;28;20022;-63
2022/05/17 11:16:51;;;;;;;8.20;3.20;;;23.00;79.90;;;;;;4999222;28;20030;-63
2022/05/17 11:19:55;;;;;;;6.60;3.20;;;23.10;80.80;;;;;;5002990;28;20026;-64
2022/05/17 11:22:39;;;;;;;30.10;20.63;;;23.10;80.00;;;;;;4973578;28;20035;-64
2022/05/17 11:25:36;;;;;;;29.98;23.77;;;23.10;80.10;;;;;;5008160;28;20062;-64
2022/05/17 11:28:39;;;;;;;28.92;19.75;;;23.10;80.50;;;;;;5001719;28;20054;-64
2022/05/17 11:31:28;;;;;;;25.33;17.42;;;23.20;80.80;;;;;;5001727;28;20166;-64
2022/05/17 11:34:23;;;;;;;17.08;12.60;;;23.20;80.40;;;;;;5013587;28;20034;-64
2022/05/17 11:36:51;;;;;;;16.88;10.60;;;23.20;78.50;;;;;;5014087;28;20034;-63
2022/05/17 11:39:35;;;;;;;19.13;12.00;;;23.20;78.40;;;;;;5001672;28;20037;-65
2022/05/17 11:42:25;;;;;;;18.35;10.63;;;23.30;78.80;;;;;;5009159;28;20026;-64
2022/05/17 11:44:51;;;;;;;16.15;10.85;;;23.20;78.00;;;;;;4994855;28;20023;-64
2022/05/17 11:47:37;;;;;;;18.02;11.07;;;23.20;78.30;;;;;;4994823;28;20053;-63
2022/05/17 11:50:15;;;;;;;17.77;11.38;;;23.30;78.10;;;;;;4996425;28;20054;-63
2022/05/17 11:52:42;;;;;;;13.30;9.30;;;23.30;78.10;;;;;;5014074;28;20113;-63
2022/05/17 11:55:16;;;;;;;15.48;9.82;;;23.30;78.10;;;;;;5012493;28;20387;-64
2022/05/17 11:57:48;;;;;;;16.33;8.98;;;23.30;77.80;;;;;;5009951;28;20034;-65
2022/05/17 12:00:28;;;;;;;14.68;8.05;;;23.30;77.50;;;;;;5007471;28;20037;-64
2022/05/17 12:02:58;;;;;;;12.10;7.38;;;23.30;77.10;;;;;;5011202;28;20036;-64
2022/05/17 12:05:39;;;;;;;12.65;6.30;;;23.30;77.20;;;;;;5000100;28;20022;-62
2022/05/17 12:08:26;;;;;;;8.55;6.60;;;23.40;75.60;;;;;;4997077;28;20087;-65
2022/05/17 12:11:10;;;;;;;8.10;5.88;;;23.40;75.90;;;;;;5009942;28;20084;-64
2022/05/17 12:13:52;;;;;;;9.65;6.13;;;23.40;76.00;;;;;;5015964;28;20475;-65
2022/05/17 12:16:26;;;;;;;;;;;23.40;75.60;;;;;;5019678;28;20018;-63
2022/05/17 12:18:59;;;;;;;9.45;5.07;;;23.40;75.50;;;;;;4997259;28;20256;-62
2022/05/17 12:21:24;;;;;;;13.32;5.22;;;23.40;75.30;;;;;;4994095;28;20030;-61
2022/05/17 12:24:05;;;;;;;7.72;4.75;;;23.40;75.00;;;;;;5011715;28;20036;-62
2022/05/17 12:26:42;;;;;;;11.30;4.95;;;23.40;74.70;;;;;;5013037;28;20037;-64
2022/05/17 12:32:00;;;;;;;8.88;4.20;;;23.40;74.30;;;;;;4994247;28;20427;-61
2022/05/17 12:34:26;;;;;;;6.65;4.55;;;23.50;74.10;;;;;;5000687;28;20022;-59
2022/05/17 12:37:10;;;;;;;7.10;4.40;;;23.50;73.90;;;;;;5012955;28;20030;-60
2022/05/17 12:45:12;;;;;;;6.65;3.75;;;23.50;73.80;;;;;;4998158;28;20041;-64
2022/05/17 12:47:52;;;;;;;5.10;3.45;;;23.50;73.70;;;;;;4994559;28;20429;-61
2022/05/17 12:50:25;;;;;;;6.38;3.63;;;23.60;73.80;;;;;;4994142;28;20373;-64
2022/05/17 12:52:58;;;;;;;5.65;3.15;;;23.60;73.40;;;;;;4994057;28;20034;-64
2022/05/17 12:55:28;;;;;;;5.38;3.45;;;23.60;73.20;;;;;;5013464;28;20026;-61
2022/05/17 12:57:54;;;;;;;6.15;3.17;;;23.60;73.20;;;;;;5009965;28;20045;-63
2022/05/17 13:00:22;;;;;;;5.32;3.05;;;23.60;73.10;;;;;;5007486;28;20053;-60
2022/05/17 13:02:52;;;;;;;8.73;3.15;;;23.70;73.00;;;;;;5010987;28;20057;-64
2022/05/17 13:05:29;;;;;;;6.45;2.88;;;23.70;72.90;;;;;;4999340;28;20044;-64
2022/05/17 13:08:07;;;;;;;3.30;2.67;;;23.70;72.80;;;;;;5011842;28;20034;-65
2022/05/17 13:10:35;;;;;;;5.13;2.70;;;23.70;72.70;;;;;;5012980;28;20505;-63
2022/05/17 13:13:16;;;;;;;7.25;2.88;;;23.70;72.70;;;;;;5000356;28;20707;-64
2022/05/17 13:15:55;;;;;;;4.60;2.33;;;23.70;72.60;;;;;;4997801;28;20388;-61
2022/05/17 13:18:22;;;;;;;4.85;2.53;;;23.70;72.50;;;;;;5007893;28;20026;-61
2022/05/17 13:20:50;;;;;;;4.05;2.50;;;23.80;72.50;;;;;;4993499;28;20061;-64
2022/05/17 13:23:21;;;;;;;5.43;2.53;;;23.80;72.60;;;;;;4993097;28;20026;-61